sensor_id;sensor_type;location;lat;lon;timestamp;P1;durP1;ratioP1;P2;durP2;ratioP2
41829;SDS011;38614;43.472;23.936;2024-02-15T00:01:22;6.65;;;2.45;;
41829;SDS011;38614;43.472;23.936;2024-02-15T00:04:10;5.07;;;2.22;;
41829;SDS011;38614;43.472;23.936;2024-02-15T00:06:58;5.25;;;2.25;;
41829;SDS011;38614;43.472;23.936;2024-02-15T00:09:48;5.13;;;1.95;;
41829;SDS011;38614;43.472;23.936;2024-02-15T00:12:36;3.55;;;2.03;;
41829;SDS011;38614;43.472;23.936;2024-02-15T00:15:24;4.80;;;2.53;;
41829;SDS011;38614;43.472;23.936;2024-02-15T00:18:12;6.47;;;2.97;;
41829;SDS011;38614;43.472;23.936;2024-02-15T00:21:00;7.22;;;2.25;;
41829;SDS011;38614;43.472;23.936;2024-02-15T00:23:53;5.30;;;2.58;;
41829;SDS011;38614;43.472;23.936;2024-02-15T00:26:41;3.85;;;1.45;;
41829;SDS011;38614;43.472;23.936;2024-02-15T00:29:33;3.00;;;1.90;;
41829;SDS011;38614;43.472;23.936;2024-02-15T00:32:21;7.60;;;1.92;;
41829;SDS011;38614;43.472;23.936;2024-02-15T00:35:10;3.30;;;2.38;;
41829;SDS011;38614;43.472;23.936;2024-02-15T00:37:58;7.18;;;1.45;;
41829;SDS011;38614;43.472;23.936;2024-02-15T00:40:50;4.53;;;2.33;;
41829;SDS011;38614;43.472;23.936;2024-02-15T00:43:37;2.67;;;2.30;;
41829;SDS011;38614;43.472;23.936;2024-02-15T00:46:25;5.20;;;1.98;;
41829;SDS011;38614;43.472;23.936;2024-02-15T00:49:16;3.28;;;2.22;;
41829;SDS011;38614;43.472;23.936;2024-02-15T00:52:04;7.07;;;1.77;;
41829;SDS011;38614;43.472;23.936;2024-02-15T00:54:52;4.22;;;2.40;;
41829;SDS011;38614;43.472;23.936;2024-02-15T00:57:39;3.17;;;1.80;;
41829;SDS011;38614;43.472;23.936;2024-02-15T01:00:27;5.85;;;2.35;;
41829;SDS011;38614;43.472;23.936;2024-02-15T01:03:16;6.55;;;2.38;;
41829;SDS011;38614;43.472;23.936;2024-02-15T01:06:04;2.38;;;1.80;;
41829;SDS011;38614;43.472;23.936;2024-02-15T01:08:55;4.13;;;2.50;;
41829;SDS011;38614;43.472;23.936;2024-02-15T01:11:44;4.25;;;2.95;;
41829;SDS011;38614;43.472;23.936;2024-02-15T01:14:35;3.40;;;2.13;;
41829;SDS011;38614;43.472;23.936;2024-02-15T01:17:23;2.33;;;2.13;;
41829;SDS011;38614;43.472;23.936;2024-02-15T01:20:11;5.57;;;2.65;;
41829;SDS011;38614;43.472;23.936;2024-02-15T01:22:59;1.95;;;1.52;;
41829;SDS011;38614;43.472;23.936;2024-02-15T01:25:47;5.82;;;2.33;;
41829;SDS011;38614;43.472;23.936;2024-02-15T01:28:35;9.07;;;2.47;;
41829;SDS011;38614;43.472;23.936;2024-02-15T01:31:22;4.93;;;1.80;;
41829;SDS011;38614;43.472;23.936;2024-02-15T01:34:10;5.00;;;2.35;;
41829;SDS011;38614;43.472;23.936;2024-02-15T01:36:58;4.05;;;2.28;;
41829;SDS011;38614;43.472;23.936;2024-02-15T01:39:46;7.82;;;1.95;;
41829;SDS011;38614;43.472;23.936;2024-02-15T01:42:34;3.78;;;2.08;;
41829;SDS011;38614;43.472;23.936;2024-02-15T01:45:23;5.03;;;2.40;;
41829;SDS011;38614;43.472;23.936;2024-02-15T01:48:12;3.03;;;2.00;;
41829;SDS011;38614;43.472;23.936;2024-02-15T01:51:03;3.65;;;1.60;;
41829;SDS011;38614;43.472;23.936;2024-02-15T01:53:52;2.40;;;1.95;;
41829;SDS011;38614;43.472;23.936;2024-02-15T01:56:41;3.65;;;1.83;;
41829;SDS011;38614;43.472;23.936;2024-02-15T01:59:30;6.22;;;1.75;;
41829;SDS011;38614;43.472;23.936;2024-02-15T02:02:20;2.60;;;2.03;;
41829;SDS011;38614;43.472;23.936;2024-02-15T02:05:08;8.63;;;1.88;;
41829;SDS011;38614;43.472;23.936;2024-02-15T02:07:56;7.57;;;2.45;;
41829;SDS011;38614;43.472;23.936;2024-02-15T02:10:46;7.72;;;2.08;;
41829;SDS011;38614;43.472;23.936;2024-02-15T02:13:34;4.85;;;2.50;;
41829;SDS011;38614;43.472;23.936;2024-02-15T02:19:14;2.38;;;1.80;;
41829;SDS011;38614;43.472;23.936;2024-02-15T02:22:01;2.97;;;2.28;;
41829;SDS011;38614;43.472;23.936;2024-02-15T02:25:07;2.55;;;1.65;;
41829;SDS011;38614;43.472;23.936;2024-02-15T02:27:56;7.25;;;2.60;;
41829;SDS011;38614;43.472;23.936;2024-02-15T02:30:44;5.97;;;2.38;;
41829;SDS011;38614;43.472;23.936;2024-02-15T02:33:33;3.10;;;2.35;;
41829;SDS011;38614;43.472;23.936;2024-02-15T02:36:23;6.55;;;2.63;;
41829;SDS011;38614;43.472;23.936;2024-02-15T02:39:14;3.22;;;2.00;;
41829;SDS011;38614;43.472;23.936;2024-02-15T02:42:06;7.53;;;2.78;;
41829;SDS011;38614;43.472;23.936;2024-02-15T02:44:53;5.13;;;1.42;;
41829;SDS011;38614;43.472;23.936;2024-02-15T02:47:41;7.03;;;2.70;;
41829;SDS011;38614;43.472;23.936;2024-02-15T02:50:29;4.60;;;2.58;;
41829;SDS011;38614;43.472;23.936;2024-02-15T02:53:17;2.55;;;1.92;;
41829;SDS011;38614;43.472;23.936;2024-02-15T02:56:05;6.47;;;2.70;;
41829;SDS011;38614;43.472;23.936;2024-02-15T02:58:52;5.82;;;3.42;;
41829;SDS011;38614;43.472;23.936;2024-02-15T03:01:40;3.45;;;1.95;;
41829;SDS011;38614;43.472;23.936;2024-02-15T03:04:28;3.08;;;1.60;;
41829;SDS011;38614;43.472;23.936;2024-02-15T03:07:16;7.25;;;2.58;;
41829;SDS011;38614;43.472;23.936;2024-02-15T03:10:06;8.05;;;2.85;;
41829;SDS011;38614;43.472;23.936;2024-02-15T03:12:55;4.15;;;2.17;;
41829;SDS011;38614;43.472;23.936;2024-02-15T03:15:45;3.53;;;1.45;;
41829;SDS011;38614;43.472;23.936;2024-02-15T03:18:35;4.75;;;2.33;;
41829;SDS011;38614;43.472;23.936;2024-02-15T03:21:22;7.35;;;2.38;;
41829;SDS011;38614;43.472;23.936;2024-02-15T03:24:10;4.13;;;2.13;;
41829;SDS011;38614;43.472;23.936;2024-02-15T03:26:58;4.50;;;2.88;;
41829;SDS011;38614;43.472;23.936;2024-02-15T03:29:45;6.10;;;1.90;;
41829;SDS011;38614;43.472;23.936;2024-02-15T03:32:34;1.92;;;1.73;;
41829;SDS011;38614;43.472;23.936;2024-02-15T03:35:41;2.95;;;1.88;;
41829;SDS011;38614;43.472;23.936;2024-02-15T03:38:34;3.25;;;2.22;;
41829;SDS011;38614;43.472;23.936;2024-02-15T03:41:26;3.83;;;2.28;;
41829;SDS011;38614;43.472;23.936;2024-02-15T03:44:14;6.28;;;1.65;;
41829;SDS011;38614;43.472;23.936;2024-02-15T03:47:04;3.42;;;1.90;;
41829;SDS011;38614;43.472;23.936;2024-02-15T03:49:52;7.60;;;2.53;;
41829;SDS011;38614;43.472;23.936;2024-02-15T03:52:42;3.33;;;1.65;;
41829;SDS011;38614;43.472;23.936;2024-02-15T03:55:31;9.38;;;2.22;;
41829;SDS011;38614;43.472;23.936;2024-02-15T03:58:20;7.20;;;1.85;;
41829;SDS011;38614;43.472;23.936;2024-02-15T04:01:08;3.75;;;1.70;;
41829;SDS011;38614;43.472;23.936;2024-02-15T04:03:57;4.07;;;2.15;;
41829;SDS011;38614;43.472;23.936;2024-02-15T04:06:45;3.08;;;1.58;;
41829;SDS011;38614;43.472;23.936;2024-02-15T04:09:33;10.23;;;2.42;;
41829;SDS011;38614;43.472;23.936;2024-02-15T04:12:22;3.05;;;2.03;;
41829;SDS011;38614;43.472;23.936;2024-02-15T04:15:10;2.90;;;1.80;;
41829;SDS011;38614;43.472;23.936;2024-02-15T04:18:05;3.15;;;1.88;;
41829;SDS011;38614;43.472;23.936;2024-02-15T04:20:54;4.80;;;2.08;;
41829;SDS011;38614;43.472;23.936;2024-02-15T04:23:41;6.68;;;2.60;;
41829;SDS011;38614;43.472;23.936;2024-02-15T04:26:29;4.20;;;1.75;;
41829;SDS011;38614;43.472;23.936;2024-02-15T04:29:18;4.93;;;1.83;;
41829;SDS011;38614;43.472;23.936;2024-02-15T04:32:09;4.20;;;2.40;;
41829;SDS011;38614;43.472;23.936;2024-02-15T04:35:03;5.90;;;2.03;;
41829;SDS011;38614;43.472;23.936;2024-02-15T04:37:57;3.15;;;1.85;;
41829;SDS011;38614;43.472;23.936;2024-02-15T04:40:45;11.65;;;2.25;;
41829;SDS011;38614;43.472;23.936;2024-02-15T04:43:34;7.03;;;1.58;;
41829;SDS011;38614;43.472;23.936;2024-02-15T04:46:23;4.32;;;2.30;;
41829;SDS011;38614;43.472;23.936;2024-02-15T04:49:12;5.50;;;2.10;;
41829;SDS011;38614;43.472;23.936;2024-02-15T04:52:00;3.00;;;1.98;;
41829;SDS011;38614;43.472;23.936;2024-02-15T04:54:51;5.10;;;1.88;;
41829;SDS011;38614;43.472;23.936;2024-02-15T04:57:42;4.70;;;1.88;;
41829;SDS011;38614;43.472;23.936;2024-02-15T05:00:33;7.43;;;2.50;;
41829;SDS011;38614;43.472;23.936;2024-02-15T05:03:21;6.90;;;2.47;;
41829;SDS011;38614;43.472;23.936;2024-02-15T05:06:09;7.60;;;3.53;;
41829;SDS011;38614;43.472;23.936;2024-02-15T05:08:57;3.30;;;2.05;;
41829;SDS011;38614;43.472;23.936;2024-02-15T05:11:50;4.50;;;2.63;;
41829;SDS011;38614;43.472;23.936;2024-02-15T05:14:37;7.45;;;2.10;;
41829;SDS011;38614;43.472;23.936;2024-02-15T05:17:27;6.72;;;2.70;;
41829;SDS011;38614;43.472;23.936;2024-02-15T05:20:19;5.57;;;2.58;;
41829;SDS011;38614;43.472;23.936;2024-02-15T05:23:11;3.70;;;2.15;;
41829;SDS011;38614;43.472;23.936;2024-02-15T05:25:59;5.25;;;2.22;;
41829;SDS011;38614;43.472;23.936;2024-02-15T05:28:48;5.55;;;2.67;;
41829;SDS011;38614;43.472;23.936;2024-02-15T05:31:35;3.25;;;2.03;;
41829;SDS011;38614;43.472;23.936;2024-02-15T05:34:25;4.20;;;2.47;;
41829;SDS011;38614;43.472;23.936;2024-02-15T05:37:15;5.18;;;2.20;;
41829;SDS011;38614;43.472;23.936;2024-02-15T05:40:04;5.97;;;3.25;;
41829;SDS011;38614;43.472;23.936;2024-02-15T05:42:55;4.80;;;2.50;;
41829;SDS011;38614;43.472;23.936;2024-02-15T05:45:49;5.47;;;2.72;;
41829;SDS011;38614;43.472;23.936;2024-02-15T05:48:44;5.05;;;2.28;;
41829;SDS011;38614;43.472;23.936;2024-02-15T05:51:32;6.22;;;2.60;;
41829;SDS011;38614;43.472;23.936;2024-02-15T05:54:23;8.45;;;3.13;;
41829;SDS011;38614;43.472;23.936;2024-02-15T05:57:16;16.75;;;3.05;;
41829;SDS011;38614;43.472;23.936;2024-02-15T06:00:05;6.78;;;3.22;;
41829;SDS011;38614;43.472;23.936;2024-02-15T06:03:09;1.95;;;1.70;;
41829;SDS011;38614;43.472;23.936;2024-02-15T06:05:59;8.43;;;2.45;;
41829;SDS011;38614;43.472;23.936;2024-02-15T06:08:49;9.05;;;3.22;;
41829;SDS011;38614;43.472;23.936;2024-02-15T06:11:39;4.38;;;2.38;;
41829;SDS011;38614;43.472;23.936;2024-02-15T06:14:27;5.25;;;2.70;;
41829;SDS011;38614;43.472;23.936;2024-02-15T06:17:15;3.35;;;2.53;;
41829;SDS011;38614;43.472;23.936;2024-02-15T06:20:03;11.68;;;2.47;;
41829;SDS011;38614;43.472;23.936;2024-02-15T06:22:51;10.57;;;3.50;;
41829;SDS011;38614;43.472;23.936;2024-02-15T06:25:39;11.48;;;4.25;;
41829;SDS011;38614;43.472;23.936;2024-02-15T06:28:28;10.32;;;3.33;;
41829;SDS011;38614;43.472;23.936;2024-02-15T06:31:34;9.32;;;3.47;;
41829;SDS011;38614;43.472;23.936;2024-02-15T06:34:42;5.90;;;2.55;;
41829;SDS011;38614;43.472;23.936;2024-02-15T06:37:50;5.57;;;2.85;;
41829;SDS011;38614;43.472;23.936;2024-02-15T06:40:57;3.90;;;2.33;;
41829;SDS011;38614;43.472;23.936;2024-02-15T06:43:45;7.38;;;2.70;;
41829;SDS011;38614;43.472;23.936;2024-02-15T06:46:33;12.93;;;2.58;;
41829;SDS011;38614;43.472;23.936;2024-02-15T06:49:21;5.97;;;3.10;;
41829;SDS011;38614;43.472;23.936;2024-02-15T06:52:09;10.00;;;4.53;;
41829;SDS011;38614;43.472;23.936;2024-02-15T06:54:58;4.57;;;2.35;;
41829;SDS011;38614;43.472;23.936;2024-02-15T06:57:47;5.38;;;2.08;;
41829;SDS011;38614;43.472;23.936;2024-02-15T07:00:35;3.65;;;2.55;;
41829;SDS011;38614;43.472;23.936;2024-02-15T07:03:22;13.52;;;1.98;;
41829;SDS011;38614;43.472;23.936;2024-02-15T07:06:11;7.65;;;2.33;;
41829;SDS011;38614;43.472;23.936;2024-02-15T07:09:02;3.30;;;1.75;;
41829;SDS011;38614;43.472;23.936;2024-02-15T07:11:51;8.80;;;2.00;;
41829;SDS011;38614;43.472;23.936;2024-02-15T07:14:39;6.80;;;2.53;;
41829;SDS011;38614;43.472;23.936;2024-02-15T07:17:27;6.70;;;2.17;;
41829;SDS011;38614;43.472;23.936;2024-02-15T07:20:15;11.77;;;2.60;;
41829;SDS011;38614;43.472;23.936;2024-02-15T07:23:06;5.45;;;1.95;;
41829;SDS011;38614;43.472;23.936;2024-02-15T07:25:56;3.85;;;2.45;;
41829;SDS011;38614;43.472;23.936;2024-02-15T07:28:45;4.93;;;1.55;;
41829;SDS011;38614;43.472;23.936;2024-02-15T07:31:36;4.80;;;1.42;;
41829;SDS011;38614;43.472;23.936;2024-02-15T07:34:24;3.33;;;1.70;;
41829;SDS011;38614;43.472;23.936;2024-02-15T07:37:14;2.90;;;1.55;;
41829;SDS011;38614;43.472;23.936;2024-02-15T07:40:03;2.97;;;1.63;;
41829;SDS011;38614;43.472;23.936;2024-02-15T07:42:51;3.20;;;2.00;;
41829;SDS011;38614;43.472;23.936;2024-02-15T07:45:39;4.53;;;1.88;;
41829;SDS011;38614;43.472;23.936;2024-02-15T07:48:28;4.65;;;2.00;;
41829;SDS011;38614;43.472;23.936;2024-02-15T07:51:16;3.17;;;1.45;;
41829;SDS011;38614;43.472;23.936;2024-02-15T07:54:05;3.58;;;1.90;;
41829;SDS011;38614;43.472;23.936;2024-02-15T07:56:53;6.57;;;1.50;;
41829;SDS011;38614;43.472;23.936;2024-02-15T07:59:41;6.80;;;2.60;;
41829;SDS011;38614;43.472;23.936;2024-02-15T08:02:29;4.38;;;3.05;;
41829;SDS011;38614;43.472;23.936;2024-02-15T08:05:17;8.75;;;3.25;;
41829;SDS011;38614;43.472;23.936;2024-02-15T08:08:05;7.72;;;2.85;;
41829;SDS011;38614;43.472;23.936;2024-02-15T08:10:54;6.63;;;2.58;;
41829;SDS011;38614;43.472;23.936;2024-02-15T08:13:48;4.03;;;1.88;;
41829;SDS011;38614;43.472;23.936;2024-02-15T08:16:37;5.38;;;2.10;;
41829;SDS011;38614;43.472;23.936;2024-02-15T08:19:27;5.35;;;2.22;;
41829;SDS011;38614;43.472;23.936;2024-02-15T08:22:16;4.97;;;1.63;;
41829;SDS011;38614;43.472;23.936;2024-02-15T08:25:08;4.60;;;2.03;;
41829;SDS011;38614;43.472;23.936;2024-02-15T08:27:57;10.55;;;2.38;;
41829;SDS011;38614;43.472;23.936;2024-02-15T08:30:45;3.67;;;2.05;;
41829;SDS011;38614;43.472;23.936;2024-02-15T08:33:34;4.38;;;0.98;;
41829;SDS011;38614;43.472;23.936;2024-02-15T08:36:22;5.43;;;1.90;;
41829;SDS011;38614;43.472;23.936;2024-02-15T08:39:10;3.33;;;2.22;;
41829;SDS011;38614;43.472;23.936;2024-02-15T08:41:59;3.70;;;1.27;;
41829;SDS011;38614;43.472;23.936;2024-02-15T08:44:50;2.10;;;1.60;;
41829;SDS011;38614;43.472;23.936;2024-02-15T08:47:39;3.55;;;1.58;;
41829;SDS011;38614;43.472;23.936;2024-02-15T08:50:27;13.02;;;1.67;;
41829;SDS011;38614;43.472;23.936;2024-02-15T08:53:15;11.07;;;2.13;;
41829;SDS011;38614;43.472;23.936;2024-02-15T08:56:06;3.75;;;1.30;;
41829;SDS011;38614;43.472;23.936;2024-02-15T08:58:56;3.80;;;1.27;;
41829;SDS011;38614;43.472;23.936;2024-02-15T09:01:50;3.60;;;1.63;;
41829;SDS011;38614;43.472;23.936;2024-02-15T09:04:38;8.65;;;1.42;;
41829;SDS011;38614;43.472;23.936;2024-02-15T09:07:31;9.23;;;1.52;;
41829;SDS011;38614;43.472;23.936;2024-02-15T09:10:19;2.83;;;1.17;;
41829;SDS011;38614;43.472;23.936;2024-02-15T09:13:09;2.40;;;1.38;;
41829;SDS011;38614;43.472;23.936;2024-02-15T09:15:57;4.65;;;1.63;;
41829;SDS011;38614;43.472;23.936;2024-02-15T09:18:45;2.83;;;1.50;;
41829;SDS011;38614;43.472;23.936;2024-02-15T09:21:33;5.22;;;2.03;;
41829;SDS011;38614;43.472;23.936;2024-02-15T09:24:21;12.68;;;2.00;;
41829;SDS011;38614;43.472;23.936;2024-02-15T09:27:09;3.15;;;1.40;;
41829;SDS011;38614;43.472;23.936;2024-02-15T09:29:59;7.20;;;1.80;;
41829;SDS011;38614;43.472;23.936;2024-02-15T09:32:47;4.80;;;1.30;;
41829;SDS011;38614;43.472;23.936;2024-02-15T09:35:35;6.53;;;1.70;;
41829;SDS011;38614;43.472;23.936;2024-02-15T09:38:23;4.97;;;1.40;;
41829;SDS011;38614;43.472;23.936;2024-02-15T09:41:12;4.43;;;1.77;;
41829;SDS011;38614;43.472;23.936;2024-02-15T09:44:00;5.75;;;1.70;;
41829;SDS011;38614;43.472;23.936;2024-02-15T09:46:49;6.15;;;1.60;;
41829;SDS011;38614;43.472;23.936;2024-02-15T09:49:41;3.72;;;1.70;;
41829;SDS011;38614;43.472;23.936;2024-02-15T09:52:29;4.18;;;2.53;;
41829;SDS011;38614;43.472;23.936;2024-02-15T09:55:22;5.80;;;2.05;;
41829;SDS011;38614;43.472;23.936;2024-02-15T09:58:11;10.05;;;2.03;;
41829;SDS011;38614;43.472;23.936;2024-02-15T10:01:03;8.82;;;1.98;;
41829;SDS011;38614;43.472;23.936;2024-02-15T10:03:57;4.00;;;1.60;;
41829;SDS011;38614;43.472;23.936;2024-02-15T10:06:46;2.95;;;1.58;;
41829;SDS011;38614;43.472;23.936;2024-02-15T10:09:35;4.05;;;1.35;;
41829;SDS011;38614;43.472;23.936;2024-02-15T10:12:26;4.15;;;1.67;;
41829;SDS011;38614;43.472;23.936;2024-02-15T10:18:21;2.75;;;1.80;;
41829;SDS011;38614;43.472;23.936;2024-02-15T10:21:09;3.10;;;1.48;;
41829;SDS011;38614;43.472;23.936;2024-02-15T10:24:05;3.83;;;1.70;;
41829;SDS011;38614;43.472;23.936;2024-02-15T10:27:00;3.72;;;2.30;;
41829;SDS011;38614;43.472;23.936;2024-02-15T10:29:48;5.70;;;2.25;;
41829;SDS011;38614;43.472;23.936;2024-02-15T10:32:36;4.15;;;2.20;;
41829;SDS011;38614;43.472;23.936;2024-02-15T10:35:28;2.20;;;1.35;;
41829;SDS011;38614;43.472;23.936;2024-02-15T10:38:16;2.70;;;1.65;;
41829;SDS011;38614;43.472;23.936;2024-02-15T10:41:06;6.97;;;2.55;;
41829;SDS011;38614;43.472;23.936;2024-02-15T10:43:54;7.80;;;2.47;;
41829;SDS011;38614;43.472;23.936;2024-02-15T10:46:42;2.65;;;2.20;;
41829;SDS011;38614;43.472;23.936;2024-02-15T10:49:30;3.90;;;2.00;;
41829;SDS011;38614;43.472;23.936;2024-02-15T10:52:21;2.05;;;1.45;;
41829;SDS011;38614;43.472;23.936;2024-02-15T10:55:10;4.47;;;1.95;;
41829;SDS011;38614;43.472;23.936;2024-02-15T10:58:01;3.08;;;1.83;;
41829;SDS011;38614;43.472;23.936;2024-02-15T11:00:54;6.88;;;3.00;;
41829;SDS011;38614;43.472;23.936;2024-02-15T11:03:47;3.45;;;2.33;;
41829;SDS011;38614;43.472;23.936;2024-02-15T11:06:38;5.18;;;2.05;;
41829;SDS011;38614;43.472;23.936;2024-02-15T11:09:29;3.25;;;1.25;;
41829;SDS011;38614;43.472;23.936;2024-02-15T11:12:17;4.63;;;1.95;;
41829;SDS011;38614;43.472;23.936;2024-02-15T11:15:05;4.93;;;1.50;;
41829;SDS011;38614;43.472;23.936;2024-02-15T11:17:54;5.30;;;1.90;;
41829;SDS011;38614;43.472;23.936;2024-02-15T11:23:34;2.42;;;1.50;;
41829;SDS011;38614;43.472;23.936;2024-02-15T11:32:44;5.70;;;2.20;;
41829;SDS011;38614;43.472;23.936;2024-02-15T11:35:35;3.45;;;1.63;;
41829;SDS011;38614;43.472;23.936;2024-02-15T11:38:28;6.85;;;2.72;;
41829;SDS011;38614;43.472;23.936;2024-02-15T11:41:18;3.03;;;1.77;;
41829;SDS011;38614;43.472;23.936;2024-02-15T11:44:06;4.65;;;2.17;;
41829;SDS011;38614;43.472;23.936;2024-02-15T11:46:55;6.60;;;2.22;;
41829;SDS011;38614;43.472;23.936;2024-02-15T11:49:44;7.57;;;2.28;;
41829;SDS011;38614;43.472;23.936;2024-02-15T11:52:33;8.27;;;2.00;;
41829;SDS011;38614;43.472;23.936;2024-02-15T11:55:21;2.78;;;1.60;;
41829;SDS011;38614;43.472;23.936;2024-02-15T11:58:13;3.97;;;2.03;;
41829;SDS011;38614;43.472;23.936;2024-02-15T12:01:16;5.88;;;2.30;;
41829;SDS011;38614;43.472;23.936;2024-02-15T12:04:23;1.63;;;1.45;;
41829;SDS011;38614;43.472;23.936;2024-02-15T12:07:29;18.17;;;2.42;;
41829;SDS011;38614;43.472;23.936;2024-02-15T12:10:35;3.10;;;1.58;;
41829;SDS011;38614;43.472;23.936;2024-02-15T12:17:26;3.08;;;1.80;;
41829;SDS011;38614;43.472;23.936;2024-02-15T12:20:43;4.07;;;1.83;;
41829;SDS011;38614;43.472;23.936;2024-02-15T12:23:34;3.72;;;1.70;;
41829;SDS011;38614;43.472;23.936;2024-02-15T12:26:23;3.67;;;1.90;;
41829;SDS011;38614;43.472;23.936;2024-02-15T12:29:15;5.07;;;1.88;;
41829;SDS011;38614;43.472;23.936;2024-02-15T12:34:52;4.38;;;2.22;;
41829;SDS011;38614;43.472;23.936;2024-02-15T12:37:39;3.30;;;2.08;;
41829;SDS011;38614;43.472;23.936;2024-02-15T12:40:32;3.15;;;1.83;;
41829;SDS011;38614;43.472;23.936;2024-02-15T12:43:19;5.88;;;1.80;;
41829;SDS011;38614;43.472;23.936;2024-02-15T12:46:08;5.28;;;2.25;;
41829;SDS011;38614;43.472;23.936;2024-02-15T12:49:28;3.22;;;1.38;;
41829;SDS011;38614;43.472;23.936;2024-02-15T12:52:34;2.70;;;1.33;;
41829;SDS011;38614;43.472;23.936;2024-02-15T12:55:24;6.38;;;1.85;;
41829;SDS011;38614;43.472;23.936;2024-02-15T12:58:13;2.45;;;1.75;;
41829;SDS011;38614;43.472;23.936;2024-02-15T13:01:03;1.67;;;1.10;;
41829;SDS011;38614;43.472;23.936;2024-02-15T13:03:51;24.08;;;2.67;;
41829;SDS011;38614;43.472;23.936;2024-02-15T13:06:39;10.10;;;3.05;;
41829;SDS011;38614;43.472;23.936;2024-02-15T13:09:27;8.30;;;1.67;;
41829;SDS011;38614;43.472;23.936;2024-02-15T13:12:14;3.50;;;1.75;;
41829;SDS011;38614;43.472;23.936;2024-02-15T13:15:05;2.38;;;1.48;;
41829;SDS011;38614;43.472;23.936;2024-02-15T13:17:54;5.28;;;1.58;;
41829;SDS011;38614;43.472;23.936;2024-02-15T13:20:43;7.32;;;2.17;;
41829;SDS011;38614;43.472;23.936;2024-02-15T13:23:31;2.28;;;1.60;;
41829;SDS011;38614;43.472;23.936;2024-02-15T13:26:19;2.83;;;1.52;;
41829;SDS011;38614;43.472;23.936;2024-02-15T13:29:10;3.22;;;1.85;;
41829;SDS011;38614;43.472;23.936;2024-02-15T13:31:59;4.80;;;1.98;;
41829;SDS011;38614;43.472;23.936;2024-02-15T13:34:48;6.60;;;1.60;;
41829;SDS011;38614;43.472;23.936;2024-02-15T13:37:42;7.10;;;1.67;;
41829;SDS011;38614;43.472;23.936;2024-02-15T13:40:30;6.15;;;2.10;;
41829;SDS011;38614;43.472;23.936;2024-02-15T13:43:19;5.85;;;1.55;;
41829;SDS011;38614;43.472;23.936;2024-02-15T13:46:06;3.50;;;2.30;;
41829;SDS011;38614;43.472;23.936;2024-02-15T13:48:54;3.65;;;1.02;;
41829;SDS011;38614;43.472;23.936;2024-02-15T13:51:42;5.05;;;2.00;;
41829;SDS011;38614;43.472;23.936;2024-02-15T13:54:30;5.70;;;1.95;;
41829;SDS011;38614;43.472;23.936;2024-02-15T13:57:19;5.97;;;1.58;;
41829;SDS011;38614;43.472;23.936;2024-02-15T14:00:07;3.50;;;1.40;;
41829;SDS011;38614;43.472;23.936;2024-02-15T14:03:00;3.67;;;1.58;;
41829;SDS011;38614;43.472;23.936;2024-02-15T14:05:49;8.00;;;2.55;;
41829;SDS011;38614;43.472;23.936;2024-02-15T14:08:40;16.10;;;2.85;;
41829;SDS011;38614;43.472;23.936;2024-02-15T14:11:28;16.08;;;3.15;;
41829;SDS011;38614;43.472;23.936;2024-02-15T14:14:18;8.63;;;1.35;;
41829;SDS011;38614;43.472;23.936;2024-02-15T14:17:06;4.68;;;1.13;;
41829;SDS011;38614;43.472;23.936;2024-02-15T14:19:54;1.23;;;0.88;;
41829;SDS011;38614;43.472;23.936;2024-02-15T14:22:48;2.60;;;0.82;;
41829;SDS011;38614;43.472;23.936;2024-02-15T14:25:36;2.63;;;1.02;;
41829;SDS011;38614;43.472;23.936;2024-02-15T14:28:24;10.07;;;2.00;;
41829;SDS011;38614;43.472;23.936;2024-02-15T14:31:12;8.60;;;1.77;;
41829;SDS011;38614;43.472;23.936;2024-02-15T14:34:18;3.00;;;1.45;;
41829;SDS011;38614;43.472;23.936;2024-02-15T14:37:07;4.43;;;1.42;;
41829;SDS011;38614;43.472;23.936;2024-02-15T14:39:57;9.60;;;1.70;;
41829;SDS011;38614;43.472;23.936;2024-02-15T14:42:52;3.47;;;1.40;;
41829;SDS011;38614;43.472;23.936;2024-02-15T14:45:43;3.97;;;1.15;;
41829;SDS011;38614;43.472;23.936;2024-02-15T14:48:32;1.77;;;0.95;;
41829;SDS011;38614;43.472;23.936;2024-02-15T14:51:20;4.85;;;1.35;;
41829;SDS011;38614;43.472;23.936;2024-02-15T14:54:21;1.58;;;1.00;;
41829;SDS011;38614;43.472;23.936;2024-02-15T14:57:10;5.57;;;1.58;;
41829;SDS011;38614;43.472;23.936;2024-02-15T14:59:59;7.97;;;1.73;;
41829;SDS011;38614;43.472;23.936;2024-02-15T15:02:47;2.75;;;1.60;;
41829;SDS011;38614;43.472;23.936;2024-02-15T15:05:35;3.45;;;2.03;;
41829;SDS011;38614;43.472;23.936;2024-02-15T15:08:43;4.03;;;0.85;;
41829;SDS011;38614;43.472;23.936;2024-02-15T15:11:52;2.00;;;1.70;;
41829;SDS011;38614;43.472;23.936;2024-02-15T15:14:58;2.58;;;1.88;;
41829;SDS011;38614;43.472;23.936;2024-02-15T15:17:47;3.10;;;1.35;;
41829;SDS011;38614;43.472;23.936;2024-02-15T15:20:35;17.73;;;1.90;;
41829;SDS011;38614;43.472;23.936;2024-02-15T15:23:24;2.17;;;1.38;;
41829;SDS011;38614;43.472;23.936;2024-02-15T15:26:18;11.30;;;2.55;;
41829;SDS011;38614;43.472;23.936;2024-02-15T15:29:07;3.58;;;1.95;;
41829;SDS011;38614;43.472;23.936;2024-02-15T15:31:55;4.03;;;1.88;;
41829;SDS011;38614;43.472;23.936;2024-02-15T15:34:45;2.28;;;1.45;;
41829;SDS011;38614;43.472;23.936;2024-02-15T15:37:35;7.03;;;1.73;;
41829;SDS011;38614;43.472;23.936;2024-02-15T15:40:26;9.73;;;2.92;;
41829;SDS011;38614;43.472;23.936;2024-02-15T15:43:16;8.63;;;2.75;;
41829;SDS011;38614;43.472;23.936;2024-02-15T15:46:04;5.68;;;3.17;;
41829;SDS011;38614;43.472;23.936;2024-02-15T15:48:52;4.97;;;2.10;;
41829;SDS011;38614;43.472;23.936;2024-02-15T15:51:44;11.63;;;4.22;;
41829;SDS011;38614;43.472;23.936;2024-02-15T15:54:31;15.00;;;5.10;;
41829;SDS011;38614;43.472;23.936;2024-02-15T15:57:21;21.60;;;7.20;;
41829;SDS011;38614;43.472;23.936;2024-02-15T16:00:09;12.88;;;6.28;;
41829;SDS011;38614;43.472;23.936;2024-02-15T16:03:00;64.35;;;19.80;;
41829;SDS011;38614;43.472;23.936;2024-02-15T16:05:49;40.60;;;11.20;;
41829;SDS011;38614;43.472;23.936;2024-02-15T16:08:37;23.88;;;8.05;;
41829;SDS011;38614;43.472;23.936;2024-02-15T16:11:25;78.72;;;22.80;;
41829;SDS011;38614;43.472;23.936;2024-02-15T16:14:13;108.95;;;30.60;;
41829;SDS011;38614;43.472;23.936;2024-02-15T16:17:00;156.68;;;43.65;;
41829;SDS011;38614;43.472;23.936;2024-02-15T16:19:50;71.38;;;17.92;;
41829;SDS011;38614;43.472;23.936;2024-02-15T16:22:43;53.45;;;17.23;;
41829;SDS011;38614;43.472;23.936;2024-02-15T16:25:35;83.53;;;24.92;;
41829;SDS011;38614;43.472;23.936;2024-02-15T16:28:23;118.80;;;36.80;;
41829;SDS011;38614;43.472;23.936;2024-02-15T16:31:12;160.55;;;52.20;;
41829;SDS011;38614;43.472;23.936;2024-02-15T16:34:02;144.83;;;45.20;;
41829;SDS011;38614;43.472;23.936;2024-02-15T16:36:50;131.30;;;45.28;;
41829;SDS011;38614;43.472;23.936;2024-02-15T16:39:39;101.18;;;38.90;;
41829;SDS011;38614;43.472;23.936;2024-02-15T16:42:32;94.63;;;33.55;;
41829;SDS011;38614;43.472;23.936;2024-02-15T16:45:21;86.70;;;31.88;;
41829;SDS011;38614;43.472;23.936;2024-02-15T16:48:10;80.82;;;27.65;;
41829;SDS011;38614;43.472;23.936;2024-02-15T16:50:59;79.75;;;26.63;;
41829;SDS011;38614;43.472;23.936;2024-02-15T16:53:49;55.58;;;22.48;;
41829;SDS011;38614;43.472;23.936;2024-02-15T16:56:37;73.30;;;22.00;;
41829;SDS011;38614;43.472;23.936;2024-02-15T16:59:27;63.03;;;21.33;;
41829;SDS011;38614;43.472;23.936;2024-02-15T17:02:17;64.32;;;23.67;;
41829;SDS011;38614;43.472;23.936;2024-02-15T17:05:08;102.35;;;44.47;;
41829;SDS011;38614;43.472;23.936;2024-02-15T17:07:56;82.25;;;34.78;;